createdAt,value
2023-03-21T00:00:01.810Z,100408.41
2023-03-21T00:02:14.556Z,100403.73
2023-03-21T00:04:31.310Z,100400.83
2023-03-21T00:06:47.929Z,100396.33
2023-03-21T00:09:00.509Z,100394.88
2023-03-21T00:11:13.329Z,100392.65
2023-03-21T00:13:28.237Z,100393.13
2023-03-21T00:16:04.824Z,100394.69
2023-03-21T00:18:25.711Z,100393.90
2023-03-21T00:20:38.202Z,100395.05
2023-03-21T00:22:51.872Z,100391.14
2023-03-21T00:25:04.725Z,100386.17
2023-03-21T00:29:50.324Z,100380.47
2023-03-21T00:32:02.938Z,100383.81
2023-03-21T00:34:17.640Z,100380.38
2023-03-21T00:36:35.348Z,100376.56
2023-03-21T00:38:48.014Z,100376.52
2023-03-21T00:41:07.803Z,100378.54
2023-03-21T00:43:30.048Z,100377.30
2023-03-21T00:45:42.585Z,100378.19
2023-03-21T00:47:55.516Z,100382.30
2023-03-21T00:50:09.020Z,100387.95
2023-03-21T00:52:30.802Z,100394.42
2023-03-21T00:54:52.669Z,100400.79
2023-03-21T00:57:05.495Z,100400.57
2023-03-21T00:59:18.094Z,100397.15
2023-03-21T01:01:32.267Z,100396.10
2023-03-21T01:03:50.775Z,100397.27
2023-03-21T01:06:07.009Z,100391.90
2023-03-21T01:08:28.031Z,100390.07
2023-03-21T01:10:46.309Z,100387.55
2023-03-21T01:12:58.859Z,100384.38
2023-03-21T01:15:11.596Z,100379.80
2023-03-21T01:17:24.183Z,100380.64
2023-03-21T01:19:51.183Z,100382.30
2023-03-21T01:22:04.970Z,100375.95
2023-03-21T01:24:17.544Z,100374.35
2023-03-21T01:26:30.367Z,100372.34
2023-03-21T01:28:44.020Z,100370.77
2023-03-21T01:30:57.057Z,100362.09
2023-03-21T01:33:10.029Z,100354.31
2023-03-21T01:35:22.915Z,100351.55
2023-03-21T01:37:35.565Z,100352.18
2023-03-21T01:39:48.296Z,100355.42
2023-03-21T01:42:01.026Z,100358.17
2023-03-21T01:44:17.134Z,100352.21
2023-03-21T01:49:34.186Z,100357.11
2023-03-21T01:52:11.463Z,100358.75
2023-03-21T01:54:31.726Z,100362.33
2023-03-21T01:56:47.879Z,100366.20
2023-03-21T01:59:34.990Z,100370.25
2023-03-21T02:01:49.788Z,100372.23
2023-03-21T02:04:03.733Z,100368.52
2023-03-21T02:06:43.757Z,100369.60
2023-03-21T02:09:01.208Z,100370.54
2023-03-21T02:11:13.737Z,100371.73
2023-03-21T02:13:26.556Z,100372.95
2023-03-21T02:15:55.289Z,100373.81
2023-03-21T02:18:19.793Z,100375.98
2023-03-21T02:20:54.349Z,100377.77
2023-03-21T02:23:29.465Z,100382.17
2023-03-21T02:26:33.375Z,100381.90
2023-03-21T02:29:06.399Z,100382.11
2023-03-21T02:31:36.369Z,100375.63
2023-03-21T02:34:13.502Z,100381.47
2023-03-21T02:37:02.995Z,100376.58
2023-03-21T02:39:32.863Z,100382.84
2023-03-21T02:41:55.595Z,100382.20
2023-03-21T02:44:32.632Z,100383.41
2023-03-21T02:47:06.011Z,100380.95
2023-03-21T02:49:43.049Z,100377.98
2023-03-21T02:52:08.562Z,100371.17
2023-03-21T02:54:45.274Z,100371.95
2023-03-21T02:57:03.567Z,100375.26
2023-03-21T02:59:18.071Z,100379.52
2023-03-21T03:01:30.663Z,100377.53
2023-03-21T03:03:43.293Z,100374.05
2023-03-21T03:05:57.474Z,100374.00
2023-03-21T03:08:41.274Z,100374.40
2023-03-21T03:11:36.881Z,100374.35
2023-03-21T03:13:58.125Z,100378.02
2023-03-21T03:16:18.523Z,100382.42
2023-03-21T03:18:41.776Z,100382.50
2023-03-21T03:21:15.719Z,100384.29
2023-03-21T03:23:43.743Z,100384.85
2023-03-21T03:26:08.729Z,100387.27
2023-03-21T03:28:27.395Z,100389.13
2023-03-21T03:30:48.845Z,100387.04
2023-03-21T03:33:11.674Z,100386.41
2023-03-21T03:35:26.228Z,100387.08
2023-03-21T03:37:41.706Z,100387.39
2023-03-21T03:40:05.061Z,100385.39
2023-03-21T03:42:28.479Z,100387.17
2023-03-21T03:44:41.953Z,100387.42
2023-03-21T03:47:06.500Z,100383.83
2023-03-21T03:49:26.222Z,100386.31
2023-03-21T03:52:17.846Z,100388.89
2023-03-21T03:54:37.274Z,100389.52
2023-03-21T03:56:50.717Z,100391.06
2023-03-21T03:59:05.268Z,100394.14
2023-03-21T04:01:17.943Z,100395.84
2023-03-21T04:03:46.083Z,100392.63
2023-03-21T04:06:00.973Z,100395.77
2023-03-21T04:08:15.418Z,100392.89
2023-03-21T04:10:28.291Z,100394.46
2023-03-21T04:12:40.930Z,100393.99
2023-03-21T04:14:57.088Z,100397.79
2023-03-21T04:17:15.925Z,100397.11
2023-03-21T04:19:28.514Z,100395.18
2023-03-21T04:21:41.488Z,100396.57
2023-03-21T04:23:54.822Z,100397.06
2023-03-21T04:26:08.524Z,100396.13
2023-03-21T04:28:22.124Z,100394.96
2023-03-21T04:30:34.662Z,100399.24
2023-03-21T04:32:54.011Z,100396.44
2023-03-21T04:35:08.370Z,100400.05
2023-03-21T04:37:23.397Z,100397.27
2023-03-21T04:39:35.953Z,100401.98
2023-03-21T04:41:49.646Z,100404.40
2023-03-21T04:44:02.202Z,100404.98
2023-03-21T04:46:15.441Z,100405.59
2023-03-21T04:48:28.102Z,100405.19
2023-03-21T04:50:40.679Z,100405.62
2023-03-21T04:52:53.246Z,100404.59
2023-03-21T04:55:10.251Z,100407.27
2023-03-21T04:57:23.172Z,100408.69
2023-03-21T04:59:36.178Z,100409.19
2023-03-21T05:01:50.034Z,100407.72
2023-03-21T05:04:04.034Z,100404.76
2023-03-21T05:06:16.894Z,100404.38
2023-03-21T05:08:29.499Z,100401.73
2023-03-21T05:10:42.380Z,100402.60
2023-03-21T05:12:55.100Z,100401.58
2023-03-21T05:15:08.940Z,100408.70
2023-03-21T05:17:24.836Z,100409.70
2023-03-21T05:19:40.366Z,100409.98
2023-03-21T05:21:53.042Z,100411.36
2023-03-21T05:24:06.449Z,100413.21
2023-03-21T05:26:19.015Z,100417.51
2023-03-21T05:28:32.169Z,100419.02
2023-03-21T05:30:46.417Z,100417.25
2023-03-21T05:32:59.661Z,100421.61
2023-03-21T05:35:13.015Z,100417.38
2023-03-21T05:37:25.895Z,100424.24
2023-03-21T05:39:38.538Z,100424.51
2023-03-21T05:41:51.228Z,100427.50
2023-03-21T05:44:03.845Z,100429.34
2023-03-21T05:46:17.400Z,100432.59
2023-03-21T05:48:30.128Z,100433.73
2023-03-21T05:50:42.750Z,100435.43
2023-03-21T05:52:55.368Z,100435.29
2023-03-21T05:55:08.337Z,100436.88
2023-03-21T05:57:20.987Z,100434.29
2023-03-21T05:59:34.589Z,100435.60
2023-03-21T06:01:47.234Z,100437.66
2023-03-21T06:03:59.790Z,100435.91
2023-03-21T06:06:12.432Z,100440.42
2023-03-21T06:08:25.116Z,100436.92
2023-03-21T06:10:37.688Z,100438.61
2023-03-21T06:12:50.332Z,100439.67
2023-03-21T06:15:05.513Z,100437.58
2023-03-21T06:17:18.002Z,100439.05
2023-03-21T06:19:31.201Z,100435.16
2023-03-21T06:21:43.731Z,100434.77
2023-03-21T06:23:56.254Z,100436.92
2023-03-21T06:26:08.911Z,100437.80
2023-03-21T06:28:22.045Z,100436.36
2023-03-21T06:30:34.543Z,100440.73
2023-03-21T06:32:47.060Z,100443.14
2023-03-21T06:35:00.193Z,100446.10
2023-03-21T06:37:12.888Z,100448.79
2023-03-21T06:39:26.229Z,100447.79
2023-03-21T06:41:39.110Z,100450.02
2023-03-21T06:43:51.654Z,100448.62
2023-03-21T06:46:05.453Z,100447.91
2023-03-21T06:48:18.079Z,100451.12
2023-03-21T06:50:30.692Z,100454.44
2023-03-21T06:52:43.264Z,100456.29
2023-03-21T06:54:56.222Z,100460.05
2023-03-21T06:57:08.822Z,100464.05
2023-03-21T06:59:21.620Z,100469.73
2023-03-21T07:01:34.837Z,100467.19
2023-03-21T07:03:47.424Z,100470.98
2023-03-21T07:06:05.462Z,100473.55
2023-03-21T07:08:18.561Z,100475.38
2023-03-21T07:10:31.123Z,100475.30
2023-03-21T07:12:43.750Z,100479.27
2023-03-21T07:14:56.304Z,100480.23
2023-03-21T07:17:08.799Z,100478.35
2023-03-21T07:19:21.300Z,100480.41
2023-03-21T07:21:33.795Z,100476.99
2023-03-21T07:23:46.946Z,100480.87
2023-03-21T07:25:59.682Z,100482.98
2023-03-21T07:28:12.363Z,100482.83
2023-03-21T07:30:25.243Z,100480.70
2023-03-21T07:32:38.393Z,100481.55
2023-03-21T07:34:51.205Z,100485.55
2023-03-21T07:37:04.509Z,100487.33
2023-03-21T07:39:17.691Z,100488.40
2023-03-21T07:41:30.313Z,100489.84
2023-03-21T07:43:42.985Z,100488.84
2023-03-21T07:45:59.497Z,100489.87
2023-03-21T07:48:13.216Z,100487.38
2023-03-21T07:50:25.847Z,100487.68
2023-03-21T07:52:38.459Z,100488.02
2023-03-21T07:54:51.049Z,100494.13
2023-03-21T07:57:04.293Z,100490.32
2023-03-21T07:59:16.851Z,100494.65
2023-03-21T08:01:29.366Z,100494.54
2023-03-21T08:03:43.295Z,100494.62
2023-03-21T08:05:55.946Z,100496.97
2023-03-21T08:08:08.477Z,100496.06
2023-03-21T08:10:21.021Z,100497.51
2023-03-21T08:12:33.560Z,100497.77
2023-03-21T08:14:46.180Z,100500.70
2023-03-21T08:16:58.848Z,100504.02
2023-03-21T08:19:11.435Z,100507.30
2023-03-21T08:21:24.039Z,100508.12
2023-03-21T08:23:36.747Z,100507.36
2023-03-21T08:25:56.650Z,100510.36
2023-03-21T08:28:09.298Z,100512.26
2023-03-21T08:30:24.008Z,100514.25
2023-03-21T08:32:38.626Z,100515.84
2023-03-21T08:34:52.234Z,100517.45
2023-03-21T08:37:04.719Z,100517.01
2023-03-21T08:39:17.362Z,100519.29
2023-03-21T08:41:29.981Z,100519.59
2023-03-21T08:43:42.629Z,100519.52
2023-03-21T08:45:56.087Z,100514.88
2023-03-21T08:48:08.697Z,100519.88
2023-03-21T08:50:23.014Z,100520.38
2023-03-21T08:52:35.642Z,100519.66
2023-03-21T08:54:48.513Z,100525.01
2023-03-21T08:57:01.073Z,100524.77
2023-03-21T08:59:13.700Z,100529.12
2023-03-21T09:01:26.210Z,100527.85
2023-03-21T09:03:38.838Z,100525.55
2023-03-21T09:05:53.954Z,100527.60
2023-03-21T09:08:07.315Z,100529.34
2023-03-21T09:10:22.757Z,100532.48
2023-03-21T09:12:36.052Z,100530.11
2023-03-21T09:14:48.780Z,100530.62
2023-03-21T09:17:02.120Z,100530.92
2023-03-21T09:19:15.267Z,100532.56
2023-03-21T09:21:28.299Z,100529.20
2023-03-21T09:23:41.650Z,100528.27
2023-03-21T09:25:54.221Z,100528.15
2023-03-21T09:28:07.298Z,100528.04
2023-03-21T09:30:26.132Z,100529.09
2023-03-21T09:32:39.931Z,100524.43
2023-03-21T09:34:53.123Z,100524.45
2023-03-21T09:37:10.256Z,100528.45
2023-03-21T09:39:23.600Z,100526.40
2023-03-21T09:42:05.333Z,100525.47
2023-03-21T09:44:37.573Z,100526.18
2023-03-21T09:47:19.821Z,100528.06
2023-03-21T09:49:38.240Z,100532.64
2023-03-21T09:51:55.693Z,100533.77
2023-03-21T09:54:22.810Z,100533.27
2023-03-21T09:56:39.010Z,100533.50
2023-03-21T09:58:56.753Z,100531.29
2023-03-21T10:01:22.252Z,100530.77
2023-03-21T10:03:35.403Z,100529.04
2023-03-21T10:05:48.997Z,100525.20
2023-03-21T10:08:07.150Z,100524.85
2023-03-21T10:10:26.686Z,100524.62
2023-03-21T10:12:39.218Z,100521.34
2023-03-21T10:14:58.073Z,100515.59
2023-03-21T10:17:30.890Z,100520.27
2023-03-21T10:19:46.519Z,100518.98
2023-03-21T10:22:01.727Z,100517.23
2023-03-21T10:24:20.663Z,100519.20
2023-03-21T10:26:33.327Z,100514.44
2023-03-21T10:28:53.168Z,100516.20
2023-03-21T10:31:09.326Z,100513.94
2023-03-21T10:33:29.850Z,100516.94
2023-03-21T10:35:46.667Z,100519.77
2023-03-21T10:38:01.529Z,100518.86
2023-03-21T10:40:16.889Z,100519.73
2023-03-21T10:42:32.892Z,100517.19
2023-03-21T10:44:49.297Z,100516.10
2023-03-21T10:47:07.769Z,100516.71
2023-03-21T10:49:23.643Z,100518.77
2023-03-21T10:51:39.091Z,100518.80
2023-03-21T10:53:58.908Z,100518.23
2023-03-21T10:56:12.127Z,100517.27
2023-03-21T10:58:33.263Z,100518.19
2023-03-21T11:00:46.486Z,100520.77
2023-03-21T11:03:00.280Z,100520.30
2023-03-21T11:05:33.564Z,100520.12
2023-03-21T11:07:46.229Z,100519.30
2023-03-21T11:10:01.388Z,100521.89
2023-03-21T11:12:27.713Z,100514.95
2023-03-21T11:14:48.925Z,100516.45
2023-03-21T11:17:01.552Z,100516.67
2023-03-21T11:19:20.233Z,100518.52
2023-03-21T11:21:37.414Z,100515.65
2023-03-21T11:23:51.714Z,100513.85
2023-03-21T11:26:10.791Z,100512.65
2023-03-21T11:28:26.060Z,100508.63
2023-03-21T11:30:59.380Z,100508.22
2023-03-21T11:33:12.386Z,100503.05
2023-03-21T11:35:32.280Z,100503.23
2023-03-21T11:37:49.151Z,100501.63
2023-03-21T11:40:25.831Z,100500.70
2023-03-21T11:42:44.994Z,100502.09
2023-03-21T11:45:02.814Z,100500.09
2023-03-21T11:47:15.503Z,100497.48
2023-03-21T11:49:28.680Z,100496.05
2023-03-21T11:51:48.930Z,100495.10
2023-03-21T11:54:15.806Z,100490.15
2023-03-21T11:56:33.383Z,100490.35
2023-03-21T11:59:23.864Z,100484.33
2023-03-21T12:02:00.256Z,100487.55
2023-03-21T12:04:42.330Z,100487.63
2023-03-21T12:07:11.875Z,100475.56
2023-03-21T12:09:36.962Z,100475.11
2023-03-21T12:12:05.183Z,100476.11
2023-03-21T12:14:17.705Z,100473.59
2023-03-21T12:16:43.469Z,100471.84
2023-03-21T12:19:21.603Z,100469.23
2023-03-21T12:21:39.725Z,100462.21
2023-03-21T12:24:22.878Z,100459.39
2023-03-21T12:27:04.737Z,100460.49
2023-03-21T12:29:34.847Z,100457.64
2023-03-21T12:31:59.258Z,100455.02
2023-03-21T12:34:42.958Z,100451.80
2023-03-21T12:37:17.459Z,100450.83
2023-03-21T12:39:35.394Z,100452.06
2023-03-21T12:41:58.224Z,100446.26
2023-03-21T12:44:16.750Z,100442.39
2023-03-21T12:46:38.012Z,100441.96
2023-03-21T12:48:53.872Z,100440.52
2023-03-21T12:51:12.789Z,100439.90
2023-03-21T12:53:44.561Z,100437.08
2023-03-21T12:56:01.682Z,100435.39
2023-03-21T12:58:24.320Z,100436.96
2023-03-21T13:00:57.345Z,100432.45
2023-03-21T13:03:19.573Z,100433.31
2023-03-21T13:05:40.670Z,100430.63
2023-03-21T13:08:06.538Z,100425.45
2023-03-21T13:10:21.710Z,100425.13
2023-03-21T13:13:03.705Z,100423.66
2023-03-21T13:15:32.708Z,100417.81
2023-03-21T13:17:56.550Z,100414.45
2023-03-21T13:20:37.836Z,100411.96
2023-03-21T13:22:50.853Z,100408.34
2023-03-21T13:25:16.313Z,100405.30
2023-03-21T13:27:32.583Z,100404.00
2023-03-21T13:29:52.257Z,100400.94
2023-03-21T13:32:30.830Z,100397.85
2023-03-21T13:34:44.606Z,100393.40
2023-03-21T13:36:58.235Z,100391.33
2023-03-21T13:39:18.639Z,100385.70
2023-03-21T13:41:34.141Z,100385.48
2023-03-21T13:43:55.690Z,100383.42
2023-03-21T13:46:10.384Z,100385.31
2023-03-21T13:48:30.524Z,100385.99
2023-03-21T13:51:00.812Z,100381.42
2023-03-21T13:53:13.523Z,100379.55
2023-03-21T13:55:29.433Z,100382.04
2023-03-21T13:57:46.834Z,100386.13
2023-03-21T14:00:20.654Z,100382.77
2023-03-21T14:02:34.177Z,100385.11
2023-03-21T14:05:04.048Z,100386.65
2023-03-21T14:07:26.257Z,100382.79
2023-03-21T14:09:46.004Z,100381.46
2023-03-21T14:12:07.102Z,100376.93
2023-03-21T14:14:22.246Z,100375.21
2023-03-21T14:16:35.324Z,100371.66
2023-03-21T14:18:55.833Z,100368.62
2023-03-21T14:21:23.324Z,100368.45
2023-03-21T14:23:38.776Z,100369.16
2023-03-21T14:25:52.631Z,100367.83
2023-03-21T14:28:13.922Z,100363.59
2023-03-21T14:30:27.934Z,100362.13
2023-03-21T14:32:40.836Z,100360.64
2023-03-21T14:34:55.047Z,100355.02
2023-03-21T14:37:10.915Z,100352.31
2023-03-21T14:39:30.951Z,100350.98
2023-03-21T14:41:49.699Z,100350.19
2023-03-21T14:44:14.156Z,100350.85
2023-03-21T14:46:27.166Z,100349.70
2023-03-21T14:48:39.755Z,100344.62
2023-03-21T14:50:55.473Z,100343.61
2023-03-21T14:53:14.018Z,100341.88
2023-03-21T14:55:27.270Z,100337.46
2023-03-21T14:57:39.958Z,100341.54
2023-03-21T14:59:55.014Z,100344.87
2023-03-21T15:02:31.174Z,100341.39
2023-03-21T15:04:47.134Z,100341.71
2023-03-21T15:07:04.928Z,100340.51
2023-03-21T15:09:22.304Z,100339.23
2023-03-21T15:11:37.990Z,100334.48
2023-03-21T15:13:55.041Z,100338.04
2023-03-21T15:16:09.765Z,100337.23
2023-03-21T15:18:29.203Z,100334.66
2023-03-21T15:20:42.185Z,100333.36
2023-03-21T15:23:02.212Z,100332.21
2023-03-21T15:25:20.405Z,100335.44
2023-03-21T15:27:37.440Z,100333.80
2023-03-21T15:29:54.094Z,100333.77
2023-03-21T15:32:12.602Z,100336.37
2023-03-21T15:34:28.364Z,100336.58
2023-03-21T15:36:47.582Z,100329.99
2023-03-21T15:39:14.792Z,100328.57
2023-03-21T15:41:30.748Z,100326.29
2023-03-21T15:43:44.244Z,100325.66
2023-03-21T15:45:56.928Z,100323.66
2023-03-21T15:48:13.930Z,100325.70
2023-03-21T15:50:37.408Z,100321.91
2023-03-21T15:52:52.154Z,100317.53
2023-03-21T15:55:17.697Z,100320.33
2023-03-21T15:57:33.999Z,100319.92
2023-03-21T15:59:47.730Z,100320.74
2023-03-21T16:02:00.465Z,100313.02
2023-03-21T16:04:13.847Z,100312.39
2023-03-21T16:06:33.619Z,100312.36
2023-03-21T16:08:49.939Z,100314.86
2023-03-21T16:11:08.072Z,100310.94
2023-03-21T16:13:20.672Z,100313.65
2023-03-21T16:15:33.350Z,100313.22
2023-03-21T16:17:53.988Z,100313.86
2023-03-21T16:20:22.388Z,100316.76
2023-03-21T16:22:35.866Z,100314.61
2023-03-21T16:24:49.287Z,100314.64
2023-03-21T16:27:02.232Z,100312.27
2023-03-21T16:29:15.908Z,100311.95
2023-03-21T16:31:32.381Z,100320.00
2023-03-21T16:33:45.760Z,100312.27
2023-03-21T16:35:58.385Z,100312.10
2023-03-21T16:38:12.652Z,100318.44
2023-03-21T16:40:32.665Z,100322.13
2023-03-21T16:42:45.484Z,100324.58
2023-03-21T16:44:58.006Z,100322.41
2023-03-21T16:47:18.572Z,100320.33
2023-03-21T16:49:31.529Z,100324.54
2023-03-21T16:51:44.097Z,100323.27
2023-03-21T16:53:57.835Z,100322.45
2023-03-21T16:56:25.981Z,100325.94
2023-03-21T16:58:38.542Z,100321.88
2023-03-21T17:00:51.069Z,100323.86
2023-03-21T17:03:12.975Z,100326.86
2023-03-21T17:05:27.939Z,100326.95
2023-03-21T17:07:41.792Z,100325.45
2023-03-21T17:09:54.415Z,100327.52
2023-03-21T17:12:13.657Z,100325.14
2023-03-21T17:14:26.285Z,100323.36
2023-03-21T17:16:40.276Z,100315.45
2023-03-21T17:18:52.998Z,100318.65
2023-03-21T17:21:15.394Z,100320.76
2023-03-21T17:23:28.588Z,100321.66
2023-03-21T17:25:41.125Z,100322.40
2023-03-21T17:27:54.120Z,100324.62
2023-03-21T17:30:18.669Z,100324.65
2023-03-21T17:32:31.179Z,100327.23
2023-03-21T17:34:43.764Z,100324.33
2023-03-21T17:36:56.382Z,100325.77
2023-03-21T17:39:15.079Z,100329.00
2023-03-21T17:41:27.774Z,100327.39
2023-03-21T17:43:40.596Z,100327.94
2023-03-21T17:45:53.141Z,100327.36
2023-03-21T17:48:05.938Z,100328.58
2023-03-21T17:50:24.494Z,100328.60
2023-03-21T17:52:37.965Z,100332.95
2023-03-21T17:54:50.536Z,100331.05
2023-03-21T17:57:03.194Z,100333.14
2023-03-21T17:59:15.863Z,100330.56
2023-03-21T18:01:30.842Z,100332.13
2023-03-21T18:03:43.755Z,100330.89
2023-03-21T18:05:57.258Z,100328.54
2023-03-21T18:08:12.571Z,100331.52
2023-03-21T18:10:27.332Z,100330.63
2023-03-21T18:12:41.463Z,100330.19
2023-03-21T18:14:54.079Z,100333.70
2023-03-21T18:17:06.695Z,100333.52
2023-03-21T18:19:19.314Z,100330.65
2023-03-21T18:21:33.020Z,100335.88
2023-03-21T18:23:45.704Z,100336.36
2023-03-21T18:25:59.084Z,100335.42
2023-03-21T18:28:12.759Z,100333.60
2023-03-21T18:30:53.148Z,100337.10
2023-03-21T18:32:58.404Z,100337.77
2023-03-21T18:35:13.312Z,100337.16
2023-03-21T18:37:30.674Z,100338.14
2023-03-21T18:39:45.233Z,100340.33
2023-03-21T18:42:02.144Z,100346.44
2023-03-21T18:44:19.675Z,100344.31
2023-03-21T18:46:33.922Z,100338.89
2023-03-21T18:48:46.691Z,100340.23
2023-03-21T18:50:59.531Z,100338.39
2023-03-21T18:53:12.135Z,100337.25
2023-03-21T18:55:44.243Z,100336.03
2023-03-21T18:57:57.724Z,100334.65
2023-03-21T19:00:13.884Z,100333.72
2023-03-21T19:02:26.571Z,100332.86
2023-03-21T19:04:39.318Z,100329.73
2023-03-21T19:06:52.954Z,100327.72
2023-03-21T19:09:08.199Z,100327.09
2023-03-21T19:11:21.513Z,100323.40
2023-03-21T19:13:34.877Z,100324.89
2023-03-21T19:15:49.528Z,100324.63
2023-03-21T19:20:35.703Z,100325.32
2023-03-21T19:22:48.348Z,100326.36
2023-03-21T19:25:01.219Z,100328.56
2023-03-21T19:27:14.717Z,100327.77
2023-03-21T19:29:27.384Z,100326.85
2023-03-21T19:31:41.870Z,100324.52
2023-03-21T19:33:54.511Z,100320.45
2023-03-21T19:36:18.035Z,100318.23
2023-03-21T19:38:34.379Z,100318.23
2023-03-21T19:40:46.953Z,100318.71
2023-03-21T19:43:14.323Z,100323.06
2023-03-21T19:45:32.117Z,100321.48
2023-03-21T19:47:44.717Z,100321.54
2023-03-21T19:52:30.182Z,100313.70
2023-03-21T19:54:42.755Z,100309.54
2023-03-21T19:56:55.622Z,100306.73
2023-03-21T19:59:08.217Z,100304.70
2023-03-21T20:01:21.235Z,100300.47
2023-03-21T20:03:33.977Z,100293.20
2023-03-21T20:05:46.619Z,100289.99
2023-03-21T20:07:59.600Z,100287.52
2023-03-21T20:10:12.267Z,100287.40
2023-03-21T20:12:24.908Z,100291.77
2023-03-21T20:14:37.493Z,100292.13
2023-03-21T20:16:50.449Z,100288.27
2023-03-21T20:19:05.867Z,100284.27
2023-03-21T20:21:25.399Z,100282.04
2023-03-21T20:23:39.189Z,100285.50
2023-03-21T20:25:51.899Z,100284.33
2023-03-21T20:28:25.915Z,100285.80
2023-03-21T20:30:38.163Z,100286.39
2023-03-21T20:32:51.404Z,100282.76
2023-03-21T20:35:19.223Z,100281.06
2023-03-21T20:37:38.180Z,100283.17
2023-03-21T20:39:50.691Z,100282.73
2023-03-21T20:42:03.838Z,100283.98
2023-03-21T20:44:45.207Z,100288.58
2023-03-21T20:46:51.238Z,100288.25
2023-03-21T20:49:06.512Z,100285.08
2023-03-21T20:53:53.842Z,100284.36
2023-03-21T20:56:07.352Z,100280.70
2023-03-21T20:58:45.164Z,100279.84
2023-03-21T21:00:52.972Z,100275.23
2023-03-21T21:03:05.715Z,100270.55
2023-03-21T21:05:30.109Z,100267.53
2023-03-21T21:07:45.992Z,100271.22
2023-03-21T21:09:58.638Z,100269.50
2023-03-21T21:12:11.943Z,100269.05
2023-03-21T21:14:25.153Z,100269.80
2023-03-21T21:16:37.713Z,100263.95
2023-03-21T21:18:50.280Z,100262.08
2023-03-21T21:21:05.957Z,100265.33
2023-03-21T21:23:18.536Z,100264.91
2023-03-21T21:25:34.781Z,100263.55
2023-03-21T21:27:47.416Z,100263.63
2023-03-21T21:30:01.935Z,100258.98
2023-03-21T21:32:16.720Z,100262.67
2023-03-21T21:34:29.330Z,100263.59
2023-03-21T21:36:44.881Z,100268.08
2023-03-21T21:38:57.402Z,100266.95
2023-03-21T21:41:17.631Z,100258.80
2023-03-21T21:43:30.795Z,100259.29
2023-03-21T21:45:43.572Z,100256.02
2023-03-21T21:47:56.581Z,100259.08
2023-03-21T21:50:09.416Z,100248.77
2023-03-21T21:52:22.000Z,100252.42
2023-03-21T21:54:34.747Z,100253.80
2023-03-21T21:56:53.928Z,100258.98
2023-03-21T21:59:06.523Z,100254.89
2023-03-21T22:01:23.064Z,100253.13
2023-03-21T22:03:41.140Z,100252.14
2023-03-21T22:06:02.600Z,100249.33
2023-03-21T22:08:16.322Z,100244.07
2023-03-21T22:10:28.861Z,100242.73
2023-03-21T22:12:41.406Z,100240.64
2023-03-21T22:14:54.159Z,100237.17
2023-03-21T22:17:07.283Z,100233.34
2023-03-21T22:19:19.832Z,100233.31
2023-03-21T22:21:32.460Z,100232.84
2023-03-21T22:23:45.160Z,100232.77
2023-03-21T22:25:58.078Z,100233.64
2023-03-21T22:28:11.056Z,100238.44
2023-03-21T22:30:24.630Z,100238.41
2023-03-21T22:32:38.384Z,100241.21
2023-03-21T22:34:51.216Z,100236.84
2023-03-21T22:37:03.930Z,100236.98
2023-03-21T22:39:23.094Z,100239.08
2023-03-21T22:41:35.742Z,100239.27
2023-03-21T22:43:48.296Z,100238.06
2023-03-21T22:46:02.941Z,100233.80
2023-03-21T22:48:15.966Z,100232.27
2023-03-21T22:50:28.720Z,100234.15
2023-03-21T22:52:41.305Z,100232.74
2023-03-21T22:54:53.878Z,100232.06
2023-03-21T22:57:06.716Z,100228.55
2023-03-21T22:59:19.332Z,100229.05
2023-03-21T23:01:32.072Z,100227.99
2023-03-21T23:03:44.687Z,100228.41
2023-03-21T23:06:03.809Z,100222.62
2023-03-21T23:08:17.634Z,100225.37
2023-03-21T23:10:30.338Z,100221.95
2023-03-21T23:12:42.908Z,100223.84
2023-03-21T23:14:55.488Z,100222.38
2023-03-21T23:17:10.040Z,100225.05
2023-03-21T23:19:25.320Z,100223.36
2023-03-21T23:21:38.449Z,100223.21
2023-03-21T23:23:52.967Z,100224.91
2023-03-21T23:26:05.842Z,100224.42
2023-03-21T23:28:18.957Z,100219.90
2023-03-21T23:30:31.580Z,100221.27
2023-03-21T23:32:44.160Z,100220.16
2023-03-21T23:34:56.677Z,100220.27
2023-03-21T23:37:09.284Z,100217.38
2023-03-21T23:39:21.835Z,100221.41
2023-03-21T23:41:34.458Z,100223.35
2023-03-21T23:43:47.493Z,100221.37
2023-03-21T23:46:00.161Z,100219.36
2023-03-21T23:48:12.822Z,100216.23
2023-03-21T23:50:26.016Z,100218.36
2023-03-21T23:52:38.829Z,100213.38
2023-03-21T23:54:51.838Z,100206.95
2023-03-21T23:57:04.382Z,100202.48
2023-03-21T23:59:16.887Z,100201.80
